Time;durP1;ratioP1;P1;durP2;ratioP2;P2;SDS_P1;SDS_P2;PMS_P1;PMS_P2;Temp;Humidity;BMP_temperature;BMP_pressure;BME280_temperature;BME280_humidity;BME280_pressure;Samples;Min_cycle;Max_cycle;Signal;HPM_P1;HPM_P2
2022/05/23 00:00:19;;;;;;;6.70;4.15;;;;;;;;;;5070575;28;20401;-82
2022/05/23 00:02:46;;;;;;;5.82;3.92;;;;;;;;;;5070693;28;20059;-81
2022/05/23 00:05:12;;;;;;;5.60;4.20;;;;;;;;;;5071522;28;20055;-82
2022/05/23 00:07:40;;;;;;;5.07;3.90;;;;;;;;;;5054081;28;20044;-81
2022/05/23 00:10:08;;;;;;;8.82;4.15;;;;;;;;;;5069914;28;20052;-82
2022/05/23 00:12:36;;;;;;;6.97;4.50;;;;;;;;;;5071756;28;20097;-81
2022/05/23 00:15:02;;;;;;;6.55;4.35;;;;;;;;;;5071545;28;20102;-81
2022/05/23 00:17:28;;;;;;;6.20;4.32;;;;;;;;;;5070343;28;20061;-82
2022/05/23 00:19:54;;;;;;;7.85;4.50;;;;;;;;;;5053597;28;20049;-81
2022/05/23 00:22:20;;;;;;;6.45;4.45;;;;;;;;;;5071565;28;20056;-81
2022/05/23 00:24:46;;;;;;;5.80;4.72;;;;;;;;;;5069703;28;20119;-81
2022/05/23 00:27:14;;;;;;;6.93;4.50;;;;;;;;;;5071204;28;20044;-81
2022/05/23 00:29:40;;;;;;;5.53;4.03;;;;;;;;;;5069801;28;20405;-82
2022/05/23 00:37:36;;;;;;;6.78;4.75;;;;;;;;;;5069836;28;20052;-81
2022/05/23 00:40:03;;;;;;;6.35;4.40;;;;;;;;;;5070475;28;20150;-81
2022/05/23 00:45:15;;;;;;;6.97;4.60;;;;;;;;;;5069401;28;20088;-81
2022/05/23 00:47:42;;;;;;;7.63;5.05;;;;;;;;;;5070727;28;20056;-82
2022/05/23 00:50:08;;;;;;;6.15;4.18;;;;;;;;;;5070729;28;20055;-81
2022/05/23 00:52:38;;;;;;;6.13;4.45;;;;;;;;;;5069683;28;20484;-81
2022/05/23 00:55:07;;;;;;;7.07;4.70;;;;;;;;;;5068690;28;20052;-82
2022/05/23 00:57:40;;;;;;;6.43;4.88;;;;;;;;;;5070920;28;20055;-81
2022/05/23 01:00:08;;;;;;;6.03;4.80;;;;;;;;;;5070387;28;20048;-81
2022/05/23 01:02:36;;;;;;;8.27;5.15;;;;;;;;;;5069760;28;20056;-81
2022/05/23 01:05:02;;;;;;;6.63;5.10;;;;;;;;;;5069666;28;20558;-81
2022/05/23 01:07:28;;;;;;;7.20;5.22;;;;;;;;;;5070652;28;20051;-81
2022/05/23 01:09:54;;;;;;;6.22;5.00;;;;;;;;;;5068985;28;20056;-81
2022/05/23 01:12:21;;;;;;;5.70;4.97;;;;;;;;;;5070551;28;20036;-81
2022/05/23 01:14:55;;;;;;;7.35;5.15;;;;;;;;;;5070583;28;20045;-81
2022/05/23 01:17:22;;;;;;;8.32;5.15;;;;;;;;;;5070820;28;20366;-81
2022/05/23 01:19:48;;;;;;;5.60;4.68;;;;;;;;;;5069372;28;20056;-81
2022/05/23 01:22:26;;;;;;;8.93;5.30;;;;;;;;;;5070150;28;20055;-81
2022/05/23 01:24:57;;;;;;;6.97;5.15;;;;;;;;;;5069602;28;20368;-81
2022/05/23 01:27:24;;;;;;;6.18;4.80;;;;;;;;;;5070612;28;20040;-81
2022/05/23 01:29:50;;;;;;;6.20;4.82;;;;;;;;;;5068927;28;20052;-81
2022/05/23 01:32:16;;;;;;;6.85;4.60;;;;;;;;;;5068807;28;20040;-81
2022/05/23 01:34:44;;;;;;;6.18;4.97;;;;;;;;;;5069041;28;20044;-81
2022/05/23 01:37:10;;;;;;;8.30;5.38;;;;;;;;;;5069577;28;20044;-81
2022/05/23 01:39:36;;;;;;;5.05;4.60;;;;;;;;;;5069181;28;20040;-81
2022/05/23 01:42:02;;;;;;;6.75;4.95;;;;;;;;;;5069754;28;20046;-81
2022/05/23 01:44:28;;;;;;;5.65;4.88;;;;;;;;;;5070235;28;20047;-81
2022/05/23 01:46:54;;;;;;;6.80;4.53;;;;;;;;;;5068286;28;20094;-81
2022/05/23 01:49:21;;;;;;;6.63;5.03;;;;;;;;;;5070192;28;20060;-81
2022/05/23 01:51:47;;;;;;;6.18;4.85;;;;;;;;;;5068379;28;20036;-81
2022/05/23 01:54:13;;;;;;;6.53;5.30;;;;;;;;;;5069603;28;20050;-81
2022/05/23 01:56:39;;;;;;;6.10;4.65;;;;;;;;;;5069919;28;20401;-81
2022/05/23 02:01:50;;;;;;;8.82;5.40;;;;;;;;;;5069000;28;20048;-82
2022/05/23 02:04:16;;;;;;;6.72;5.03;;;;;;;;;;5070180;28;20389;-81
2022/05/23 02:06:42;;;;;;;10.15;5.20;;;;;;;;;;5069438;28;20079;-81
2022/05/23 02:09:08;;;;;;;6.78;4.97;;;;;;;;;;5069687;28;20408;-81
2022/05/23 02:11:34;;;;;;;6.35;4.82;;;;;;;;;;5069812;28;20486;-81
2022/05/23 02:14:00;;;;;;;5.90;5.30;;;;;;;;;;5068544;28;20518;-82
2022/05/23 02:16:27;;;;;;;8.02;5.55;;;;;;;;;;5069700;28;20048;-82
2022/05/23 02:18:53;;;;;;;6.32;5.00;;;;;;;;;;5072134;28;20053;-81
2022/05/23 02:21:20;;;;;;;9.60;5.13;;;;;;;;;;5072181;28;20052;-81
2022/05/23 02:23:47;;;;;;;5.82;5.22;;;;;;;;;;5073952;28;20056;-81
2022/05/23 02:26:13;;;;;;;5.90;5.32;;;;;;;;;;5072012;28;20074;-81
2022/05/23 02:28:39;;;;;;;5.88;5.28;;;;;;;;;;5072314;28;20049;-81
2022/05/23 02:31:05;;;;;;;6.25;5.68;;;;;;;;;;5071948;28;20044;-81
2022/05/23 02:33:31;;;;;;;8.45;5.60;;;;;;;;;;5074058;28;20048;-81
2022/05/23 02:35:58;;;;;;;10.48;5.93;;;;;;;;;;5072572;28;20041;-81
2022/05/23 02:38:24;;;;;;;7.72;5.68;;;;;;;;;;5073710;28;20052;-81
2022/05/23 02:40:50;;;;;;;8.77;6.30;;;;;;;;;;5072640;28;20067;-81
2022/05/23 02:43:16;;;;;;;8.65;6.07;;;;;;;;;;5071802;28;20393;-81
2022/05/23 02:45:43;;;;;;;7.40;6.70;;;;;;;;;;5055279;28;20060;-82
2022/05/23 02:48:09;;;;;;;9.30;7.05;;;;;;;;;;5071639;28;20058;-82
2022/05/23 02:50:38;;;;;;;9.77;6.60;;;;;;;;;;5073010;28;20037;-81
2022/05/23 02:53:04;;;;;;;7.40;6.70;;;;;;;;;;5071763;28;20138;-81
2022/05/23 02:55:30;;;;;;;8.90;6.53;;;;;;;;;;5071455;28;20083;-81
2022/05/23 02:57:56;;;;;;;9.52;7.03;;;;;;;;;;5071715;28;20105;-81
2022/05/23 03:00:22;;;;;;;8.13;6.55;;;;;;;;;;5073143;28;20053;-81
2022/05/23 03:03:03;;;;;;;8.30;7.28;;;;;;;;;;5071756;28;20102;-81
2022/05/23 03:05:30;;;;;;;8.50;7.70;;;;;;;;;;5072544;28;20523;-81
2022/05/23 03:07:56;;;;;;;8.57;7.40;;;;;;;;;;5071156;28;20407;-81
2022/05/23 03:10:22;;;;;;;9.52;7.15;;;;;;;;;;5072887;28;20396;-81
2022/05/23 03:12:48;;;;;;;8.43;7.35;;;;;;;;;;5072801;28;20049;-81
2022/05/23 03:15:14;;;;;;;8.25;7.45;;;;;;;;;;5072493;28;20044;-81
2022/05/23 03:17:41;;;;;;;8.32;6.90;;;;;;;;;;5071450;28;20538;-81
2022/05/23 03:20:07;;;;;;;8.38;7.57;;;;;;;;;;5070835;28;20098;-81
2022/05/23 03:28:03;;;;;;;10.35;7.28;;;;;;;;;;5072187;28;20044;-81
2022/05/23 03:30:29;;;;;;;11.57;7.70;;;;;;;;;;5072694;28;20106;-81
2022/05/23 03:32:57;;;;;;;9.38;7.65;;;;;;;;;;5070772;28;20048;-81
2022/05/23 03:35:23;;;;;;;8.32;7.35;;;;;;;;;;5072465;28;20047;-81
2022/05/23 03:37:49;;;;;;;8.43;7.60;;;;;;;;;;5071199;28;20504;-81
2022/05/23 03:40:15;;;;;;;8.13;7.35;;;;;;;;;;5072125;28;20443;-81
2022/05/23 03:42:41;;;;;;;9.93;7.72;;;;;;;;;;5071407;28;20127;-82
2022/05/23 03:45:08;;;;;;;11.90;7.60;;;;;;;;;;5072205;28;20482;-81
2022/05/23 03:47:34;;;;;;;8.73;7.82;;;;;;;;;;5070165;28;20076;-81
2022/05/23 03:50:00;;;;;;;8.70;7.80;;;;;;;;;;5070564;28;20048;-81
2022/05/23 03:52:26;;;;;;;12.18;8.07;;;;;;;;;;5071055;28;20040;-81
2022/05/23 03:54:55;;;;;;;9.57;7.93;;;;;;;;;;5071340;28;20047;-81
2022/05/23 03:57:23;;;;;;;10.13;7.60;;;;;;;;;;5054136;28;20048;-81
2022/05/23 03:59:49;;;;;;;10.23;8.25;;;;;;;;;;5072101;28;20087;-82
2022/05/23 04:02:15;;;;;;;8.35;7.53;;;;;;;;;;5053333;28;20052;-81
2022/05/23 04:04:41;;;;;;;8.95;8.02;;;;;;;;;;5070874;28;20051;-81
2022/05/23 04:07:07;;;;;;;9.77;8.23;;;;;;;;;;5071514;28;20451;-81
2022/05/23 04:09:34;;;;;;;9.68;8.00;;;;;;;;;;5071461;28;20045;-81
2022/05/23 04:12:00;;;;;;;11.30;8.50;;;;;;;;;;5070206;28;20126;-81
2022/05/23 04:14:27;;;;;;;10.38;8.40;;;;;;;;;;5053983;28;20044;-81
2022/05/23 04:16:53;;;;;;;9.38;8.02;;;;;;;;;;5069578;28;20040;-82
2022/05/23 04:19:20;;;;;;;9.48;7.78;;;;;;;;;;5071714;28;20048;-81
2022/05/23 04:21:47;;;;;;;11.48;8.63;;;;;;;;;;5071486;28;20130;-81
2022/05/23 04:24:15;;;;;;;9.65;8.65;;;;;;;;;;5071025;28;20044;-81
2022/05/23 04:26:41;;;;;;;9.25;8.40;;;;;;;;;;5071312;28;20405;-81
2022/05/23 04:29:07;;;;;;;11.65;8.48;;;;;;;;;;5070996;28;20477;-81
2022/05/23 04:31:34;;;;;;;9.57;8.15;;;;;;;;;;5069913;28;20071;-81
2022/05/23 04:36:45;;;;;;;9.63;8.35;;;;;;;;;;5070955;28;20454;-81
2022/05/23 04:39:11;;;;;;;11.43;8.40;;;;;;;;;;5070168;28;20048;-80
2022/05/23 04:41:37;;;;;;;10.15;8.55;;;;;;;;;;5071170;28;20052;-81
2022/05/23 04:44:03;;;;;;;9.60;8.60;;;;;;;;;;5070878;28;20059;-81
2022/05/23 04:46:29;;;;;;;10.20;8.73;;;;;;;;;;5070414;28;20059;-81
2022/05/23 04:51:40;;;;;;;9.73;8.73;;;;;;;;;;5070839;28;20498;-81
2022/05/23 04:54:09;;;;;;;10.10;8.55;;;;;;;;;;5070587;28;20056;-81
2022/05/23 04:56:37;;;;;;;11.07;7.80;;;;;;;;;;5069418;28;20466;-81
2022/05/23 04:59:03;;;;;;;9.93;9.00;;;;;;;;;;5070561;28;20101;-81
2022/05/23 05:01:30;;;;;;;12.55;9.23;;;;;;;;;;5069215;28;20140;-81
2022/05/23 05:03:57;;;;;;;11.93;8.88;;;;;;;;;;5070702;28;20082;-81
2022/05/23 05:06:24;;;;;;;14.05;9.20;;;;;;;;;;5069338;28;20057;-82
2022/05/23 05:08:50;;;;;;;9.63;8.73;;;;;;;;;;5052474;28;20134;-81
2022/05/23 05:11:16;;;;;;;10.25;9.32;;;;;;;;;;5070689;28;20044;-81
2022/05/23 05:13:43;;;;;;;9.85;8.70;;;;;;;;;;5053024;28;20059;-81
2022/05/23 05:16:10;;;;;;;11.45;8.90;;;;;;;;;;5068350;28;20045;-81
2022/05/23 05:18:36;;;;;;;10.73;9.63;;;;;;;;;;5069323;28;20049;-81
2022/05/23 05:21:07;;;;;;;10.23;8.70;;;;;;;;;;5070225;28;20058;-81
2022/05/23 05:23:33;;;;;;;9.48;8.40;;;;;;;;;;5069101;28;20048;-81
2022/05/23 05:25:59;;;;;;;9.50;8.50;;;;;;;;;;5068859;28;20040;-81
2022/05/23 05:28:25;;;;;;;9.63;8.70;;;;;;;;;;5052366;28;20074;-81
2022/05/23 05:30:56;;;;;;;11.20;9.05;;;;;;;;;;5069711;28;20042;-82
2022/05/23 05:33:24;;;;;;;11.48;8.32;;;;;;;;;;5069162;28;20067;-81
2022/05/23 05:36:00;;;;;;;9.18;8.23;;;;;;;;;;5069191;28;20117;-81
2022/05/23 05:38:33;;;;;;;9.95;8.63;;;;;;;;;;5068924;28;20503;-81
2022/05/23 05:41:04;;;;;;;10.32;8.02;;;;;;;;;;5068687;28;20044;-81
2022/05/23 05:43:33;;;;;;;10.07;8.27;;;;;;;;;;5070025;28;20048;-81
2022/05/23 05:46:19;;;;;;;9.00;7.95;;;;;;;;;;5068308;28;20118;-81
2022/05/23 05:48:47;;;;;;;11.25;7.90;;;;;;;;;;5069798;28;20060;-82
2022/05/23 05:51:14;;;;;;;10.05;7.20;;;;;;;;;;5069635;28;20423;-81
2022/05/23 05:53:40;;;;;;;8.50;7.03;;;;;;;;;;5068744;28;20075;-81
2022/05/23 05:56:07;;;;;;;8.57;7.20;;;;;;;;;;5069786;28;20068;-81
2022/05/23 05:58:33;;;;;;;8.65;7.57;;;;;;;;;;5069568;28;20090;-82
2022/05/23 06:01:00;;;;;;;10.13;7.60;;;;;;;;;;5069970;28;20048;-81
2022/05/23 06:03:26;;;;;;;8.32;7.53;;;;;;;;;;5068691;28;20045;-82
2022/05/23 06:11:24;;;;;;;10.73;7.25;;;;;;;;;;5070124;28;20124;-82
2022/05/23 06:13:55;;;;;;;8.45;6.63;;;;;;;;;;5069314;28;20094;-81
2022/05/23 06:16:22;;;;;;;10.85;7.15;;;;;;;;;;5069718;28;20045;-81
2022/05/23 06:18:48;;;;;;;7.97;6.88;;;;;;;;;;5068469;28;20059;-82
2022/05/23 06:21:14;;;;;;;7.53;6.68;;;;;;;;;;5068268;28;20131;-82
2022/05/23 06:23:41;;;;;;;7.88;7.07;;;;;;;;;;5068431;28;20390;-82
2022/05/23 06:26:07;;;;;;;8.82;6.72;;;;;;;;;;5068326;28;20082;-82
2022/05/23 06:28:36;;;;;;;10.85;6.72;;;;;;;;;;5069416;28;20041;-81
2022/05/23 06:31:02;;;;;;;7.15;5.90;;;;;;;;;;5069377;28;20044;-81
2022/05/23 06:33:29;;;;;;;7.75;6.38;;;;;;;;;;5069512;28;20089;-82
2022/05/23 06:35:55;;;;;;;8.70;6.15;;;;;;;;;;5067988;28;20424;-81
2022/05/23 06:38:21;;;;;;;10.63;6.40;;;;;;;;;;5068321;28;20467;-82
2022/05/23 06:40:53;;;;;;;7.97;6.90;;;;;;;;;;5068185;28;20044;-82
2022/05/23 06:43:20;;;;;;;9.38;6.28;;;;;;;;;;5068952;28;20047;-81
2022/05/23 06:45:47;;;;;;;6.60;5.95;;;;;;;;;;5068059;28;20052;-81
2022/05/23 06:48:13;;;;;;;9.23;6.60;;;;;;;;;;5067937;28;20413;-82
2022/05/23 06:50:39;;;;;;;7.70;6.53;;;;;;;;;;5069694;28;20075;-82
2022/05/23 06:53:05;;;;;;;8.55;6.07;;;;;;;;;;5069304;28;20124;-82
2022/05/23 06:55:31;;;;;;;6.90;6.22;;;;;;;;;;5068014;28;20059;-82
2022/05/23 06:57:57;;;;;;;8.65;6.65;;;;;;;;;;5068657;28;20049;-82
2022/05/23 07:00:23;;;;;;;8.10;6.50;;;;;;;;;;5068012;28;20044;-82
2022/05/23 07:02:49;;;;;;;10.05;6.15;;;;;;;;;;5071177;28;20057;-82
2022/05/23 07:13:30;;;;;;;8.27;6.30;;;;;;;;;;5071526;28;20554;-82
2022/05/23 07:15:57;;;;;;;9.48;6.60;;;;;;;;;;5071230;28;20045;-82
2022/05/23 07:18:26;;;;;;;7.05;6.35;;;;;;;;;;5072935;28;20044;-82
2022/05/23 07:20:53;;;;;;;8.65;6.45;;;;;;;;;;5072565;28;20062;-82
2022/05/23 07:23:20;;;;;;;8.23;6.03;;;;;;;;;;5071583;28;20498;-82
2022/05/23 07:25:46;;;;;;;7.38;6.43;;;;;;;;;;5072095;28;20067;-82
2022/05/23 07:28:12;;;;;;;7.18;6.43;;;;;;;;;;5070864;28;20542;-82
2022/05/23 07:30:38;;;;;;;8.32;6.63;;;;;;;;;;5072518;28;20052;-82
2022/05/23 07:33:06;;;;;;;14.57;6.68;;;;;;;;;;5072396;28;20036;-82
2022/05/23 07:35:32;;;;;;;10.18;7.22;;;;;;;;;;5072493;28;20052;-82
2022/05/23 07:37:58;;;;;;;10.00;6.53;;;;;;;;;;5072177;28;20043;-82
2022/05/23 07:40:24;;;;;;;8.73;6.38;;;;;;;;;;5072230;28;20044;-82
2022/05/23 07:42:50;;;;;;;6.72;6.03;;;;;;;;;;5072483;28;20037;-82
2022/05/23 07:45:16;;;;;;;9.07;6.53;;;;;;;;;;5070718;28;20067;-82
2022/05/23 07:47:42;;;;;;;8.07;6.28;;;;;;;;;;5070921;28;20045;-82
2022/05/23 07:50:09;;;;;;;9.30;6.55;;;;;;;;;;5070637;28;20051;-82
2022/05/23 07:52:35;;;;;;;7.35;6.43;;;;;;;;;;5070783;28;20044;-82
2022/05/23 08:00:34;;;;;;;8.90;6.35;;;;;;;;;;5072021;28;20044;-82
2022/05/23 08:03:09;;;;;;;8.50;6.53;;;;;;;;;;5070350;28;20056;-82
2022/05/23 08:05:35;;;;;;;10.27;7.00;;;;;;;;;;5054290;28;20101;-82
2022/05/23 08:08:01;;;;;;;10.05;6.57;;;;;;;;;;5071466;28;20044;-82
2022/05/23 08:10:27;;;;;;;9.63;6.50;;;;;;;;;;5070458;28;20063;-82
2022/05/23 08:12:57;;;;;;;8.20;6.63;;;;;;;;;;5069935;28;20421;-82
2022/05/23 08:15:25;;;;;;;9.70;6.57;;;;;;;;;;5070331;28;20049;-82
2022/05/23 08:17:51;;;;;;;8.13;6.63;;;;;;;;;;5071718;28;20448;-82
2022/05/23 08:20:17;;;;;;;8.45;6.35;;;;;;;;;;5070266;28;20046;-82
2022/05/23 08:22:44;;;;;;;8.98;7.00;;;;;;;;;;5071624;28;20098;-82
2022/05/23 08:25:10;;;;;;;9.40;6.85;;;;;;;;;;5070694;28;20094;-82
2022/05/23 08:27:36;;;;;;;8.32;6.20;;;;;;;;;;5070139;28;20490;-82
2022/05/23 08:30:04;;;;;;;7.90;6.13;;;;;;;;;;5053194;28;20057;-82
2022/05/23 08:32:29;;;;;;;7.70;6.22;;;;;;;;;;5070067;28;20098;-82
2022/05/23 08:34:55;;;;;;;9.13;6.55;;;;;;;;;;5071094;28;20169;-82
2022/05/23 08:37:21;;;;;;;7.03;5.90;;;;;;;;;;5069531;28;20064;-82
2022/05/23 08:39:48;;;;;;;8.77;6.40;;;;;;;;;;5069995;28;20051;-82
2022/05/23 08:42:28;;;;;;;10.10;6.45;;;;;;;;;;5069695;28;20050;-82
2022/05/23 08:45:07;;;;;;;8.35;6.43;;;;;;;;;;5070936;28;20045;-82
2022/05/23 08:47:35;;;;;;;8.85;6.63;;;;;;;;;;5070830;28;20053;-82
2022/05/23 08:50:14;;;;;;;9.40;6.60;;;;;;;;;;5070750;28;20056;-82
2022/05/23 08:53:01;;;;;;;11.93;6.45;;;;;;;;;;5070969;28;20040;-82
2022/05/23 08:55:29;;;;;;;9.00;6.75;;;;;;;;;;5070799;28;20507;-82
2022/05/23 08:58:14;;;;;;;10.93;6.85;;;;;;;;;;5070453;28;20052;-82
2022/05/23 09:00:42;;;;;;;9.13;6.95;;;;;;;;;;5070712;28;20123;-82
2022/05/23 09:03:11;;;;;;;9.25;6.65;;;;;;;;;;5069467;28;20052;-82
2022/05/23 09:05:39;;;;;;;8.82;6.47;;;;;;;;;;5069271;28;20558;-82
2022/05/23 09:08:07;;;;;;;9.98;7.05;;;;;;;;;;5052121;28;20079;-82
2022/05/23 09:10:41;;;;;;;9.10;7.82;;;;;;;;;;5070726;28;20054;-82
2022/05/23 09:13:08;;;;;;;8.68;6.95;;;;;;;;;;5070400;28;20041;-82
2022/05/23 09:15:34;;;;;;;9.55;7.65;;;;;;;;;;5069200;28;20405;-82
2022/05/23 09:18:02;;;;;;;9.52;6.93;;;;;;;;;;5070047;28;20044;-82
2022/05/23 09:20:34;;;;;;;8.35;6.43;;;;;;;;;;5070694;28;20504;-82
2022/05/23 09:23:03;;;;;;;8.52;7.50;;;;;;;;;;5068561;28;20132;-82
2022/05/23 09:25:30;;;;;;;9.73;6.95;;;;;;;;;;5068593;28;20132;-82
2022/05/23 09:28:05;;;;;;;9.02;7.13;;;;;;;;;;5069933;28;20072;-82
2022/05/23 09:30:32;;;;;;;8.93;6.60;;;;;;;;;;5070476;28;20045;-82
2022/05/23 09:33:08;;;;;;;7.57;6.60;;;;;;;;;;5068590;28;20374;-82
2022/05/23 09:35:40;;;;;;;10.95;7.68;;;;;;;;;;5070021;28;20052;-82
2022/05/23 09:38:14;;;;;;;8.50;6.50;;;;;;;;;;5069895;28;20064;-83
2022/05/23 09:40:40;;;;;;;9.85;6.50;;;;;;;;;;5069028;28;20072;-82
2022/05/23 09:49:04;;;;;;;7.90;7.00;;;;;;;;;;5068804;28;20056;-82
2022/05/23 09:51:31;;;;;;;8.05;7.20;;;;;;;;;;5068474;28;20104;-82
2022/05/23 09:54:00;;;;;;;9.25;7.15;;;;;;;;;;5051654;28;20155;-83
2022/05/23 09:56:29;;;;;;;7.93;7.13;;;;;;;;;;5070163;28;20063;-82
2022/05/23 09:58:56;;;;;;;9.55;7.47;;;;;;;;;;5069774;28;20040;-83
2022/05/23 10:01:26;;;;;;;8.23;6.93;;;;;;;;;;5069872;28;20097;-83
2022/05/23 10:03:52;;;;;;;9.48;7.35;;;;;;;;;;5069483;28;20100;-82
2022/05/23 10:06:20;;;;;;;9.18;7.38;;;;;;;;;;5068362;28;20040;-82
2022/05/23 10:08:48;;;;;;;12.55;7.95;;;;;;;;;;5069924;28;20440;-82
2022/05/23 10:11:32;;;;;;;7.80;6.85;;;;;;;;;;5069651;28;20040;-82
2022/05/23 10:13:59;;;;;;;10.50;7.00;;;;;;;;;;5069326;28;20056;-82
2022/05/23 10:16:52;;;;;;;8.35;6.45;;;;;;;;;;5069610;28;20053;-82
2022/05/23 10:19:44;;;;;;;7.50;6.45;;;;;;;;;;5067453;28;20052;-82
2022/05/23 10:22:14;;;;;;;7.28;6.00;;;;;;;;;;5067533;28;20056;-82
2022/05/23 10:24:45;;;;;;;7.78;5.95;;;;;;;;;;5068135;28;20135;-83
2022/05/23 10:27:17;;;;;;;9.27;6.18;;;;;;;;;;5069699;28;20048;-83
2022/05/23 10:29:51;;;;;;;8.68;7.05;;;;;;;;;;5068344;28;20052;-83
2022/05/23 10:32:32;;;;;;;8.60;6.63;;;;;;;;;;5069525;28;20124;-83
2022/05/23 10:35:02;;;;;;;9.30;7.05;;;;;;;;;;5067499;28;20052;-82
2022/05/23 10:37:29;;;;;;;10.07;7.05;;;;;;;;;;5071059;28;20489;-82
2022/05/23 10:42:46;;;;;;;8.90;6.80;;;;;;;;;;5073601;28;20080;-82
2022/05/23 10:45:16;;;;;;;9.05;7.45;;;;;;;;;;5073055;28;20425;-82
2022/05/23 10:48:01;;;;;;;9.20;7.78;;;;;;;;;;5071925;28;20417;-82
2022/05/23 10:50:35;;;;;;;9.43;7.60;;;;;;;;;;5072141;28;20047;-82
2022/05/23 10:53:20;;;;;;;8.50;7.50;;;;;;;;;;5071629;28;20045;-82
2022/05/23 10:56:16;;;;;;;8.45;7.55;;;;;;;;;;5071800;28;20048;-82
2022/05/23 10:58:42;;;;;;;9.63;7.00;;;;;;;;;;5019211;28;20056;-82
2022/05/23 11:01:17;;;;;;;9.63;7.40;;;;;;;;;;5071570;28;20112;-83
2022/05/23 11:03:57;;;;;;;7.60;6.50;;;;;;;;;;5071621;28;20062;-83
2022/05/23 11:06:37;;;;;;;7.97;6.78;;;;;;;;;;5071708;28;20055;-82
2022/05/23 11:09:29;;;;;;;9.63;6.68;;;;;;;;;;5072593;28;20558;-83
2022/05/23 11:12:14;;;;;;;8.35;7.47;;;;;;;;;;5048463;28;20057;-83
2022/05/23 11:14:48;;;;;;;9.57;7.07;;;;;;;;;;5072782;28;20085;-82
2022/05/23 11:17:14;;;;;;;8.00;6.68;;;;;;;;;;5072212;28;20044;-82
2022/05/23 11:20:06;;;;;;;7.07;6.15;;;;;;;;;;5073255;28;20107;-82
2022/05/23 11:22:37;;;;;;;8.45;5.40;;;;;;;;;;5072703;28;20048;-82
2022/05/23 11:25:23;;;;;;;9.07;6.10;;;;;;;;;;5071206;28;20044;-82
2022/05/23 11:33:47;;;;;;;7.32;5.72;;;;;;;;;;5070782;28;20044;-83
2022/05/23 11:36:23;;;;;;;7.22;5.05;;;;;;;;;;5071212;28;20052;-83
2022/05/23 11:38:50;;;;;;;7.50;5.28;;;;;;;;;;5072422;28;20489;-83
2022/05/23 11:41:40;;;;;;;7.43;4.72;;;;;;;;;;5070769;28;20048;-82
2022/05/23 11:44:32;;;;;;;6.50;4.57;;;;;;;;;;5066618;28;20068;-82
2022/05/23 11:47:04;;;;;;;5.07;4.47;;;;;;;;;;5069989;28;20059;-83
2022/05/23 11:49:40;;;;;;;4.85;2.97;;;;;;;;;;5071692;28;20120;-82
2022/05/23 11:52:16;;;;;;;3.97;2.80;;;;;;;;;;5070631;28;20131;-82
2022/05/23 11:54:42;;;;;;;4.53;2.70;;;;;;;;;;5070981;28;20076;-82
2022/05/23 11:57:14;;;;;;;4.22;3.22;;;;;;;;;;5070701;28;20057;-82
2022/05/23 11:59:40;;;;;;;4.18;2.75;;;;;;;;;;5072173;28;20040;-82
2022/05/23 12:02:12;;;;;;;4.65;2.72;;;;;;;;;;5069966;28;20048;-83
2022/05/23 12:04:41;;;;;;;4.47;2.85;;;;;;;;;;5070696;28;20051;-83
2022/05/23 12:07:07;;;;;;;6.32;3.10;;;;;;;;;;5071828;28;20129;-82
2022/05/23 12:09:35;;;;;;;4.75;2.88;;;;;;;;;;5071874;28;20102;-82
2022/05/23 12:12:19;;;;;;;5.38;3.15;;;;;;;;;;5071746;28;20067;-83
2022/05/23 12:14:45;;;;;;;4.97;3.38;;;;;;;;;;5070716;28;20431;-83
2022/05/23 12:17:16;;;;;;;5.30;3.60;;;;;;;;;;5070954;28;20548;-83
2022/05/23 12:19:43;;;;;;;3.92;3.22;;;;;;;;;;5071781;28;20511;-82
2022/05/23 12:22:12;;;;;;;3.55;3.00;;;;;;;;;;5071498;28;20049;-83
2022/05/23 12:24:56;;;;;;;4.72;2.80;;;;;;;;;;5070065;28;20141;-83
2022/05/23 12:27:35;;;;;;;5.78;3.03;;;;;;;;;;5070786;28;20049;-82
2022/05/23 12:30:17;;;;;;;4.35;2.83;;;;;;;;;;5069547;28;20045;-83
2022/05/23 12:32:43;;;;;;;4.03;2.67;;;;;;;;;;5071399;28;20052;-82
2022/05/23 12:35:13;;;;;;;5.00;2.92;;;;;;;;;;5071085;28;20040;-83
2022/05/23 12:37:41;;;;;;;3.63;2.60;;;;;;;;;;5071371;28;20053;-82
2022/05/23 12:40:08;;;;;;;6.97;3.30;;;;;;;;;;5070926;28;20120;-82
2022/05/23 12:42:37;;;;;;;5.00;2.90;;;;;;;;;;5071079;28;20056;-82
2022/05/23 12:45:04;;;;;;;4.90;2.92;;;;;;;;;;5070747;28;20745;-82
2022/05/23 12:47:49;;;;;;;7.28;2.97;;;;;;;;;;5070820;28;20178;-83
2022/05/23 12:50:40;;;;;;;3.92;2.80;;;;;;;;;;5070829;28;20127;-82
2022/05/23 12:53:15;;;;;;;5.85;3.05;;;;;;;;;;5070794;28;20048;-83
2022/05/23 12:55:55;;;;;;;4.82;3.50;;;;;;;;;;5070905;28;20055;-82
2022/05/23 12:58:40;;;;;;;5.20;3.25;;;;;;;;;;5070667;28;20048;-83
2022/05/23 13:01:08;;;;;;;5.37;3.23;;;;;;;;;;5069931;28;20040;-83
2022/05/23 13:03:48;;;;;;;5.05;3.40;;;;;;;;;;5071008;28;20048;-82
2022/05/23 13:06:18;;;;;;;4.97;3.22;;;;;;;;;;5069526;28;20120;-82
2022/05/23 13:08:52;;;;;;;3.30;2.65;;;;;;;;;;5070720;28;20489;-82
2022/05/23 13:11:25;;;;;;;4.05;3.00;;;;;;;;;;5069273;28;20132;-82
2022/05/23 13:13:51;;;;;;;3.85;2.83;;;;;;;;;;5069231;28;20577;-82
2022/05/23 13:16:22;;;;;;;5.38;3.20;;;;;;;;;;5069648;28;20052;-82
2022/05/23 13:27:05;;;;;;;5.25;3.00;;;;;;;;;;5068924;28;20509;-82
2022/05/23 13:29:32;;;;;;;4.32;3.08;;;;;;;;;;5069826;28;20120;-83
2022/05/23 13:31:59;;;;;;;3.85;3.20;;;;;;;;;;5069799;28;20045;-82
2022/05/23 13:34:30;;;;;;;6.63;3.20;;;;;;;;;;5069332;28;20401;-82
2022/05/23 13:36:57;;;;;;;8.38;3.40;;;;;;;;;;5068704;28;20052;-82
2022/05/23 13:39:23;;;;;;;5.05;3.45;;;;;;;;;;5069059;28;20060;-82
2022/05/23 13:41:49;;;;;;;5.35;3.55;;;;;;;;;;5068716;28;20044;-82
2022/05/23 13:44:21;;;;;;;5.85;4.10;;;;;;;;;;5068645;28;20063;-83
2022/05/23 13:46:47;;;;;;;5.53;3.97;;;;;;;;;;5069902;28;20562;-82
2022/05/23 13:49:18;;;;;;;6.80;4.50;;;;;;;;;;5068420;28;20055;-82
2022/05/23 13:51:52;;;;;;;6.80;4.72;;;;;;;;;;5070056;28;20132;-82
2022/05/23 13:54:24;;;;;;;6.32;4.90;;;;;;;;;;5068728;28;20111;-83
2022/05/23 13:56:55;;;;;;;6.40;5.05;;;;;;;;;;5069529;28;20552;-83
2022/05/23 13:59:25;;;;;;;7.55;4.63;;;;;;;;;;5070347;28;20052;-83
2022/05/23 14:01:53;;;;;;;6.18;4.97;;;;;;;;;;5070192;28;20044;-83
2022/05/23 14:04:22;;;;;;;7.10;5.10;;;;;;;;;;5070108;28;20040;-83
2022/05/23 14:06:50;;;;;;;5.80;4.75;;;;;;;;;;5069821;28;20040;-83
2022/05/23 14:09:17;;;;;;;6.07;4.78;;;;;;;;;;5068315;28;20270;-83
2022/05/23 14:11:50;;;;;;;6.75;5.00;;;;;;;;;;5071219;28;20055;-83
2022/05/23 14:14:38;;;;;;;6.90;5.32;;;;;;;;;;5075276;28;20102;-83
2022/05/23 14:17:04;;;;;;;5.93;4.88;;;;;;;;;;5074759;28;20123;-83
2022/05/23 14:19:51;;;;;;;8.77;4.85;;;;;;;;;;5075273;28;20147;-83
2022/05/23 14:22:25;;;;;;;8.25;5.05;;;;;;;;;;5058475;28;20169;-83
2022/05/23 14:24:52;;;;;;;8.52;4.60;;;;;;;;;;5075047;28;20052;-83
2022/05/23 14:27:20;;;;;;;6.60;4.90;;;;;;;;;;5076108;28;20041;-83
2022/05/23 14:29:47;;;;;;;6.85;4.28;;;;;;;;;;5074982;28;20056;-83
2022/05/23 14:32:14;;;;;;;7.00;4.22;;;;;;;;;;5076149;28;20044;-83
2022/05/23 14:34:41;;;;;;;6.20;4.45;;;;;;;;;;5074935;28;20055;-83
2022/05/23 14:37:11;;;;;;;5.95;4.07;;;;;;;;;;5076151;28;20051;-82
2022/05/23 14:39:38;;;;;;;5.35;4.68;;;;;;;;;;5075262;28;20056;-83
2022/05/23 14:42:22;;;;;;;9.48;4.30;;;;;;;;;;5074211;28;20059;-83
2022/05/23 14:45:24;;;;;;;8.32;4.63;;;;;;;;;;5075222;28;20166;-83
2022/05/23 14:47:54;;;;;;;5.82;4.13;;;;;;;;;;5033450;28;20061;-83
2022/05/23 14:50:21;;;;;;;6.72;4.40;;;;;;;;;;5017028;28;20068;-83
2022/05/23 14:55:55;;;;;;;6.25;4.53;;;;;;;;;;5033182;28;20049;-83
2022/05/23 15:01:25;;;;;;;6.95;5.30;;;;;;;;;;5016696;28;20053;-83
2022/05/23 15:03:52;;;;;;;5.63;4.72;;;;;;;;;;5017280;28;20256;-83
2022/05/23 15:06:19;;;;;;;7.05;5.10;;;;;;;;;;5033579;28;20053;-83
2022/05/23 15:08:46;;;;;;;6.38;4.00;;;;;;;;;;5016852;28;20054;-83
2022/05/23 15:11:25;;;;;;;6.25;5.05;;;;;;;;;;5016492;28;20550;-83
2022/05/23 15:13:51;;;;;;;6.53;4.75;;;;;;;;;;5016991;28;20099;-83
2022/05/23 15:16:21;;;;;;;7.00;5.20;;;;;;;;;;5016821;28;20207;-83
2022/05/23 15:18:47;;;;;;;6.05;4.18;;;;;;;;;;5033284;28;20144;-83
2022/05/23 15:21:13;;;;;;;7.85;5.18;;;;;;;;;;5028480;28;20127;-82
2022/05/23 15:23:40;;;;;;;15.27;5.68;;;;;;;;;;5072555;28;20056;-83
2022/05/23 15:26:08;;;;;;;8.65;6.72;;;;;;;;;;5071008;28;20044;-83
2022/05/23 15:28:34;;;;;;;13.98;10.10;;;;;;;;;;5072620;28;20582;-83
2022/05/23 15:31:00;;;;;;;14.90;10.43;;;;;;;;;;5072051;28;20079;-83
2022/05/23 15:33:26;;;;;;;14.70;13.23;;;;;;;;;;5071373;28;20493;-83
2022/05/23 15:35:52;;;;;;;18.63;16.02;;;;;;;;;;5072117;28;20048;-83
2022/05/23 15:38:18;;;;;;;17.88;14.75;;;;;;;;;;5071075;28;20048;-82
2022/05/23 15:40:44;;;;;;;20.85;18.00;;;;;;;;;;5071356;28;20379;-83
2022/05/23 15:43:11;;;;;;;22.48;20.27;;;;;;;;;;5070736;28;20132;-83
2022/05/23 15:45:40;;;;;;;22.42;20.05;;;;;;;;;;5072539;28;20381;-83
2022/05/23 15:48:07;;;;;;;24.02;21.58;;;;;;;;;;5070546;28;20056;-83
2022/05/23 15:50:33;;;;;;;25.23;21.45;;;;;;;;;;5071010;28;20135;-83
2022/05/23 15:53:00;;;;;;;25.52;22.83;;;;;;;;;;5071402;28;20109;-83
2022/05/23 15:55:26;;;;;;;25.38;22.70;;;;;;;;;;5072077;28;20086;-82
2022/05/23 15:57:52;;;;;;;28.13;25.13;;;;;;;;;;5071855;28;20032;-83
2022/05/23 16:00:22;;;;;;;27.75;24.15;;;;;;;;;;5072102;28;20807;-83
2022/05/23 16:02:51;;;;;;;27.17;23.48;;;;;;;;;;5072084;28;20040;-83